sensor_id;sensor_type;location;lat;lon;timestamp;pressure;altitude;pressure_sealevel;temperature;humidity
5877;BME280;2964;42.144;24.730;2022-10-16T00:00:48;144671.94;;;12.44;85.47
5877;BME280;2964;42.144;24.730;2022-10-16T00:03:15;144699.63;;;12.55;85.52
5877;BME280;2964;42.144;24.730;2022-10-16T00:05:43;144645.53;;;12.33;85.48
5877;BME280;2964;42.144;24.730;2022-10-16T00:08:11;144671.94;;;12.44;85.67
5877;BME280;2964;42.144;24.730;2022-10-16T00:10:38;144562.53;;;12.00;86.49
5877;BME280;2964;42.144;24.730;2022-10-16T00:13:06;144586.41;;;12.09;87.19
5877;BME280;2964;42.144;24.730;2022-10-16T00:15:34;144498.38;;;11.73;89.73
5877;BME280;2964;42.144;24.730;2022-10-16T00:18:02;144566.31;;;12.01;89.54
5877;BME280;2964;42.144;24.730;2022-10-16T00:20:29;144599.00;;;12.14;87.76
5877;BME280;2964;42.144;24.730;2022-10-16T00:22:56;144609.06;;;12.19;87.74
5877;BME280;2964;42.144;24.730;2022-10-16T00:25:23;144593.97;;;12.12;88.08
5877;BME280;2964;42.144;24.730;2022-10-16T00:27:50;144548.69;;;11.94;89.19
5877;BME280;2964;42.144;24.730;2022-10-16T00:30:17;144479.53;;;11.66;90.59
5877;BME280;2964;42.144;24.730;2022-10-16T00:32:45;144446.78;;;11.52;91.98
5877;BME280;2964;42.144;24.730;2022-10-16T00:35:11;144387.72;;;11.28;93.42
5877;BME280;2964;42.144;24.730;2022-10-16T00:37:38;144507.16;;;11.77;92.10
5877;BME280;2964;42.144;24.730;2022-10-16T00:40:06;144479.53;;;11.66;91.31
5877;BME280;2964;42.144;24.730;2022-10-16T00:42:32;144381.47;;;11.26;93.26
5877;BME280;2964;42.144;24.730;2022-10-16T00:44:59;144407.84;;;11.36;93.81
5877;BME280;2964;42.144;24.730;2022-10-16T00:47:29;144450.56;;;11.54;93.01
5877;BME280;2964;42.144;24.730;2022-10-16T00:50:02;144546.16;;;11.93;91.06
5877;BME280;2964;42.144;24.730;2022-10-16T00:52:32;144605.28;;;12.17;89.72
5877;BME280;2964;42.144;24.730;2022-10-16T00:55:00;144614.06;;;12.21;89.59
5877;BME280;2964;42.144;24.730;2022-10-16T00:57:28;144609.06;;;12.19;88.95
5877;BME280;2964;42.144;24.730;2022-10-16T00:59:55;144563.78;;;12.00;89.50
5877;BME280;2964;42.144;24.730;2022-10-16T01:02:23;144406.56;;;11.36;91.67
5877;BME280;2964;42.144;24.730;2022-10-16T01:04:51;144239.44;;;10.68;94.35
5877;BME280;2964;42.144;24.730;2022-10-16T01:07:30;144235.72;;;10.66;95.68
5877;BME280;2964;42.144;24.730;2022-10-16T01:10:07;144249.53;;;10.72;96.57
5877;BME280;2964;42.144;24.730;2022-10-16T01:12:40;144231.94;;;10.65;97.30
5877;BME280;2964;42.144;24.730;2022-10-16T01:15:13;144234.44;;;10.66;97.53
5877;BME280;2964;42.144;24.730;2022-10-16T01:17:45;144240.75;;;10.68;97.48
5877;BME280;2964;42.144;24.730;2022-10-16T01:20:21;144284.69;;;10.86;97.02
5877;BME280;2964;42.144;24.730;2022-10-16T01:23:04;144151.56;;;10.32;97.58
5877;BME280;2964;42.144;24.730;2022-10-16T01:25:40;144231.94;;;10.65;98.33
5877;BME280;2964;42.144;24.730;2022-10-16T01:28:16;144203.03;;;10.53;98.61
5877;BME280;2964;42.144;24.730;2022-10-16T01:30:45;144245.75;;;10.70;98.25
5877;BME280;2964;42.144;24.730;2022-10-16T01:33:16;144254.56;;;10.74;96.99
5877;BME280;2964;42.144;24.730;2022-10-16T01:35:47;144308.59;;;10.96;96.79
5877;BME280;2964;42.144;24.730;2022-10-16T01:38:22;144254.56;;;10.74;96.63
5877;BME280;2964;42.144;24.730;2022-10-16T01:40:52;144206.81;;;10.54;98.09
5877;BME280;2964;42.144;24.730;2022-10-16T01:43:26;144174.16;;;10.41;98.68
5877;BME280;2964;42.144;24.730;2022-10-16T01:45:54;144147.72;;;10.30;99.99
5877;BME280;2964;42.144;24.730;2022-10-16T01:48:22;144199.31;;;10.51;98.94
5877;BME280;2964;42.144;24.730;2022-10-16T01:50:55;144165.38;;;10.37;99.68
5877;BME280;2964;42.144;24.730;2022-10-16T01:53:24;144107.53;;;10.14;100.00
5877;BME280;2964;42.144;24.730;2022-10-16T01:55:54;144097.50;;;10.10;100.00
5877;BME280;2964;42.144;24.730;2022-10-16T01:58:24;144098.75;;;10.10;100.00
5877;BME280;2964;42.144;24.730;2022-10-16T02:00:52;144091.25;;;10.07;100.00
5877;BME280;2964;42.144;24.730;2022-10-16T02:03:20;144083.69;;;10.04;100.00
5877;BME280;2964;42.144;24.730;2022-10-16T02:05:51;143890.41;;;9.25;100.00
5877;BME280;2964;42.144;24.730;2022-10-16T02:08:18;144061.09;;;9.95;100.00
5877;BME280;2964;42.144;24.730;2022-10-16T02:10:45;144030.97;;;9.82;100.00
5877;BME280;2964;42.144;24.730;2022-10-16T02:13:15;144013.38;;;9.75;100.00
5877;BME280;2964;42.144;24.730;2022-10-16T02:15:44;144100.03;;;10.11;100.00
5877;BME280;2964;42.144;24.730;2022-10-16T02:18:11;144030.97;;;9.82;100.00
5877;BME280;2964;42.144;24.730;2022-10-16T02:20:44;144033.50;;;9.83;100.00
5877;BME280;2964;42.144;24.730;2022-10-16T02:23:17;144076.16;;;10.01;100.00
5877;BME280;2964;42.144;24.730;2022-10-16T02:25:46;144108.78;;;10.14;100.00
5877;BME280;2964;42.144;24.730;2022-10-16T02:28:16;144038.50;;;9.85;100.00
5877;BME280;2964;42.144;24.730;2022-10-16T02:30:49;144120.13;;;10.19;100.00
5877;BME280;2964;42.144;24.730;2022-10-16T02:33:18;144096.28;;;10.09;100.00
5877;BME280;2964;42.144;24.730;2022-10-16T02:35:48;143988.31;;;9.65;100.00
5877;BME280;2964;42.144;24.730;2022-10-16T02:38:17;144128.91;;;10.22;100.00
5877;BME280;2964;42.144;24.730;2022-10-16T02:40:44;144117.56;;;10.18;100.00
5877;BME280;2964;42.144;24.730;2022-10-16T02:43:11;144141.47;;;10.28;100.00
5877;BME280;2964;42.144;24.730;2022-10-16T02:45:38;144049.78;;;9.90;100.00
5877;BME280;2964;42.144;24.730;2022-10-16T02:48:06;144033.50;;;9.83;100.00
5877;BME280;2964;42.144;24.730;2022-10-16T02:50:33;144077.44;;;10.01;100.00
5877;BME280;2964;42.144;24.730;2022-10-16T02:53:00;144125.13;;;10.21;100.00
5877;BME280;2964;42.144;24.730;2022-10-16T02:55:27;144018.41;;;9.77;100.00
5877;BME280;2964;42.144;24.730;2022-10-16T02:57:55;144046.06;;;9.89;100.00
5877;BME280;2964;42.144;24.730;2022-10-16T03:00:21;144007.13;;;9.73;100.00
5877;BME280;2964;42.144;24.730;2022-10-16T03:02:48;143971.97;;;9.58;100.00
5877;BME280;2964;42.144;24.730;2022-10-16T03:05:16;144038.50;;;9.85;100.00
5877;BME280;2964;42.144;24.730;2022-10-16T03:07:43;144097.50;;;10.10;100.00
5877;BME280;2964;42.144;24.730;2022-10-16T03:10:09;144149.03;;;10.31;100.00
5877;BME280;2964;42.144;24.730;2022-10-16T03:12:36;144143.97;;;10.29;100.00
5877;BME280;2964;42.144;24.730;2022-10-16T03:15:03;144224.41;;;10.61;98.38
5877;BME280;2964;42.144;24.730;2022-10-16T03:17:31;144133.91;;;10.24;98.51
5877;BME280;2964;42.144;24.730;2022-10-16T03:19:58;144203.03;;;10.53;98.09
5877;BME280;2964;42.144;24.730;2022-10-16T03:22:26;144096.28;;;10.09;99.30
5877;BME280;2964;42.144;24.730;2022-10-16T03:24:53;144091.25;;;10.07;99.49
5877;BME280;2964;42.144;24.730;2022-10-16T03:27:20;144046.06;;;9.89;99.78
5877;BME280;2964;42.144;24.730;2022-10-16T03:29:47;143995.81;;;9.68;100.00
5877;BME280;2964;42.144;24.730;2022-10-16T03:32:13;144151.56;;;10.32;99.04
5877;BME280;2964;42.144;24.730;2022-10-16T03:34:40;144063.59;;;9.96;99.76
5877;BME280;2964;42.144;24.730;2022-10-16T03:37:07;144035.97;;;9.84;100.00
5877;BME280;2964;42.144;24.730;2022-10-16T03:39:35;144106.31;;;10.13;99.17
5877;BME280;2964;42.144;24.730;2022-10-16T03:42:01;144140.19;;;10.27;97.87
5877;BME280;2964;42.144;24.730;2022-10-16T03:44:28;143990.78;;;9.66;100.00
5877;BME280;2964;42.144;24.730;2022-10-16T03:46:55;143837.69;;;9.03;100.00
5877;BME280;2964;42.144;24.730;2022-10-16T03:49:21;143852.78;;;9.10;100.00
5877;BME280;2964;42.144;24.730;2022-10-16T03:51:48;143930.56;;;9.41;100.00
5877;BME280;2964;42.144;24.730;2022-10-16T03:54:15;144034.75;;;9.84;100.00
5877;BME280;2964;42.144;24.730;2022-10-16T03:56:43;144072.38;;;9.99;99.25
5877;BME280;2964;42.144;24.730;2022-10-16T03:59:10;143948.13;;;9.49;100.00
5877;BME280;2964;42.144;24.730;2022-10-16T04:01:36;143823.91;;;8.98;100.00
5877;BME280;2964;42.144;24.730;2022-10-16T04:04:03;143754.94;;;8.69;100.00
5877;BME280;2964;42.144;24.730;2022-10-16T04:06:29;143738.59;;;8.63;100.00
5877;BME280;2964;42.144;24.730;2022-10-16T04:08:56;143797.56;;;8.87;100.00
5877;BME280;2964;42.144;24.730;2022-10-16T04:11:23;143835.22;;;9.02;100.00
5877;BME280;2964;42.144;24.730;2022-10-16T04:13:51;143693.47;;;8.44;100.00
5877;BME280;2964;42.144;24.730;2022-10-16T04:16:17;143693.47;;;8.44;100.00
5877;BME280;2964;42.144;24.730;2022-10-16T04:18:44;143798.84;;;8.87;100.00
5877;BME280;2964;42.144;24.730;2022-10-16T04:21:11;143909.22;;;9.33;100.00
5877;BME280;2964;42.144;24.730;2022-10-16T04:23:38;143965.72;;;9.56;100.00
5877;BME280;2964;42.144;24.730;2022-10-16T04:26:05;143929.31;;;9.41;100.00
5877;BME280;2964;42.144;24.730;2022-10-16T04:28:32;143778.75;;;8.79;100.00
5877;BME280;2964;42.144;24.730;2022-10-16T04:31:00;143837.69;;;9.03;100.00
5877;BME280;2964;42.144;24.730;2022-10-16T04:33:29;143881.63;;;9.21;100.00
5877;BME280;2964;42.144;24.730;2022-10-16T04:35:57;143892.94;;;9.26;100.00
5877;BME280;2964;42.144;24.730;2022-10-16T04:38:24;143711.03;;;8.52;100.00
5877;BME280;2964;42.144;24.730;2022-10-16T04:40:51;143683.41;;;8.40;100.00
5877;BME280;2964;42.144;24.730;2022-10-16T04:43:18;143689.75;;;8.43;100.00
5877;BME280;2964;42.144;24.730;2022-10-16T04:45:45;143638.25;;;8.22;100.00
5877;BME280;2964;42.144;24.730;2022-10-16T04:48:13;143663.34;;;8.32;100.00
5877;BME280;2964;42.144;24.730;2022-10-16T04:50:40;143610.69;;;8.10;100.00
5877;BME280;2964;42.144;24.730;2022-10-16T04:53:07;143729.81;;;8.59;100.00
5877;BME280;2964;42.144;24.730;2022-10-16T04:55:34;143768.72;;;8.75;100.00
5877;BME280;2964;42.144;24.730;2022-10-16T04:58:01;143739.91;;;8.63;100.00
5877;BME280;2964;42.144;24.730;2022-10-16T05:00:28;143749.91;;;8.67;100.00
5877;BME280;2964;42.144;24.730;2022-10-16T05:02:54;143859.03;;;9.12;100.00
5877;BME280;2964;42.144;24.730;2022-10-16T05:05:23;143821.41;;;8.97;100.00
5877;BME280;2964;42.144;24.730;2022-10-16T05:07:50;143702.25;;;8.48;100.00
5877;BME280;2964;42.144;24.730;2022-10-16T05:10:17;143798.84;;;8.87;100.00
5877;BME280;2964;42.144;24.730;2022-10-16T05:12:44;143856.56;;;9.11;100.00
5877;BME280;2964;42.144;24.730;2022-10-16T05:15:11;143811.34;;;8.93;100.00
5877;BME280;2964;42.144;24.730;2022-10-16T05:17:37;143948.13;;;9.49;100.00
5877;BME280;2964;42.144;24.730;2022-10-16T05:20:05;143983.28;;;9.63;100.00
5877;BME280;2964;42.144;24.730;2022-10-16T05:22:33;144047.28;;;9.89;99.16
5877;BME280;2964;42.144;24.730;2022-10-16T05:25:00;144076.16;;;10.01;97.53
5877;BME280;2964;42.144;24.730;2022-10-16T05:27:27;143953.16;;;9.51;99.60
5877;BME280;2964;42.144;24.730;2022-10-16T05:29:53;144042.28;;;9.87;98.24
5877;BME280;2964;42.144;24.730;2022-10-16T05:32:20;144096.28;;;10.09;95.95
5877;BME280;2964;42.144;24.730;2022-10-16T05:34:46;144110.06;;;10.15;95.51
5877;BME280;2964;42.144;24.730;2022-10-16T05:37:13;144108.78;;;10.14;95.37
5877;BME280;2964;42.144;24.730;2022-10-16T05:39:41;144138.94;;;10.27;94.96
5877;BME280;2964;42.144;24.730;2022-10-16T05:42:08;143920.53;;;9.37;95.92
5877;BME280;2964;42.144;24.730;2022-10-16T05:44:34;143836.47;;;9.03;100.00
5877;BME280;2964;42.144;24.730;2022-10-16T05:47:01;143948.13;;;9.49;99.93
5877;BME280;2964;42.144;24.730;2022-10-16T05:49:28;143943.13;;;9.46;98.37
5877;BME280;2964;42.144;24.730;2022-10-16T05:51:54;144023.47;;;9.79;97.36
5877;BME280;2964;42.144;24.730;2022-10-16T05:54:21;144022.16;;;9.79;97.91
5877;BME280;2964;42.144;24.730;2022-10-16T05:56:49;143985.78;;;9.64;98.89
5877;BME280;2964;42.144;24.730;2022-10-16T05:59:16;144088.72;;;10.06;98.55
5877;BME280;2964;42.144;24.730;2022-10-16T06:01:42;144105.06;;;10.13;97.24
5877;BME280;2964;42.144;24.730;2022-10-16T06:04:09;144087.47;;;10.05;98.10
5877;BME280;2964;42.144;24.730;2022-10-16T06:06:36;144076.16;;;10.01;97.83
5877;BME280;2964;42.144;24.730;2022-10-16T06:09:03;144117.56;;;10.18;97.03
5877;BME280;2964;42.144;24.730;2022-10-16T06:11:32;144072.38;;;9.99;97.45
5877;BME280;2964;42.144;24.730;2022-10-16T06:14:01;144307.28;;;10.95;94.94
5877;BME280;2964;42.144;24.730;2022-10-16T06:16:32;144360.09;;;11.17;93.73
5877;BME280;2964;42.144;24.730;2022-10-16T06:18:59;144390.25;;;11.29;93.41
5877;BME280;2964;42.144;24.730;2022-10-16T06:21:27;144463.16;;;11.59;91.67
5877;BME280;2964;42.144;24.730;2022-10-16T06:23:54;144500.84;;;11.74;91.05
5877;BME280;2964;42.144;24.730;2022-10-16T06:26:23;144531.03;;;11.87;90.66
5877;BME280;2964;42.144;24.730;2022-10-16T06:28:50;144591.44;;;12.11;89.64
5877;BME280;2964;42.144;24.730;2022-10-16T06:31:18;144578.91;;;12.06;89.87
5877;BME280;2964;42.144;24.730;2022-10-16T06:33:45;144624.16;;;12.25;89.49
5877;BME280;2964;42.144;24.730;2022-10-16T06:36:14;144561.28;;;11.99;88.47
5877;BME280;2964;42.144;24.730;2022-10-16T06:38:42;144626.66;;;12.26;88.87
5877;BME280;2964;42.144;24.730;2022-10-16T06:41:11;144586.41;;;12.09;90.27
5877;BME280;2964;42.144;24.730;2022-10-16T06:43:38;144554.97;;;11.96;91.70
5877;BME280;2964;42.144;24.730;2022-10-16T06:46:06;144489.56;;;11.70;92.68
5877;BME280;2964;42.144;24.730;2022-10-16T06:48:35;144604.03;;;12.16;91.60
5877;BME280;2964;42.144;24.730;2022-10-16T06:51:03;144660.66;;;12.40;89.57
5877;BME280;2964;42.144;24.730;2022-10-16T06:53:32;144578.91;;;12.06;90.63
5877;BME280;2964;42.144;24.730;2022-10-16T06:56:07;144675.72;;;12.46;90.41
5877;BME280;2964;42.144;24.730;2022-10-16T06:58:34;144688.31;;;12.51;88.92
5877;BME280;2964;42.144;24.730;2022-10-16T07:01:00;144568.81;;;12.02;90.02
5877;BME280;2964;42.144;24.730;2022-10-16T07:03:27;144645.53;;;12.33;90.22
5877;BME280;2964;42.144;24.730;2022-10-16T07:05:55;144896.00;;;13.36;87.15
5877;BME280;2964;42.144;24.730;2022-10-16T07:08:22;144890.97;;;13.34;86.20
5877;BME280;2964;42.144;24.730;2022-10-16T07:10:58;144809.06;;;13.00;87.26
5877;BME280;2964;42.144;24.730;2022-10-16T07:13:24;144880.81;;;13.29;85.61
5877;BME280;2964;42.144;24.730;2022-10-16T07:15:51;144950.16;;;13.58;85.44
5877;BME280;2964;42.144;24.730;2022-10-16T07:18:18;145024.41;;;13.88;83.62
5877;BME280;2964;42.144;24.730;2022-10-16T07:20:44;145016.84;;;13.85;83.91
5877;BME280;2964;42.144;24.730;2022-10-16T07:23:12;145087.41;;;14.14;83.55
5877;BME280;2964;42.144;24.730;2022-10-16T07:25:39;144960.22;;;13.62;82.14
5877;BME280;2964;42.144;24.730;2022-10-16T07:28:06;145091.19;;;14.15;83.23
5877;BME280;2964;42.144;24.730;2022-10-16T07:30:35;145083.59;;;14.12;82.89
5877;BME280;2964;42.144;24.730;2022-10-16T07:33:02;145205.84;;;14.62;80.74
5877;BME280;2964;42.144;24.730;2022-10-16T07:35:29;145136.53;;;14.34;81.86
5877;BME280;2964;42.144;24.730;2022-10-16T07:37:55;145142.81;;;14.36;82.20
5877;BME280;2964;42.144;24.730;2022-10-16T07:40:23;145180.63;;;14.52;81.25
5877;BME280;2964;42.144;24.730;2022-10-16T07:42:52;145154.19;;;14.41;82.45
5877;BME280;2964;42.144;24.730;2022-10-16T07:45:19;145309.22;;;15.04;79.73
5877;BME280;2964;42.144;24.730;2022-10-16T07:47:45;145325.63;;;15.11;79.23
5877;BME280;2964;42.144;24.730;2022-10-16T07:50:12;145302.94;;;15.01;79.22
5877;BME280;2964;42.144;24.730;2022-10-16T07:52:39;145232.31;;;14.73;81.57
5877;BME280;2964;42.144;24.730;2022-10-16T07:55:06;145244.94;;;14.78;81.27
5877;BME280;2964;42.144;24.730;2022-10-16T07:57:34;145339.47;;;15.16;80.81
5877;BME280;2964;42.144;24.730;2022-10-16T08:00:01;145333.16;;;15.14;79.97
5877;BME280;2964;42.144;24.730;2022-10-16T08:02:27;145406.25;;;15.43;79.52
5877;BME280;2964;42.144;24.730;2022-10-16T08:04:54;145434.03;;;15.55;79.10
5877;BME280;2964;42.144;24.730;2022-10-16T08:07:21;145415.09;;;15.47;78.68
5877;BME280;2964;42.144;24.730;2022-10-16T08:09:49;145454.19;;;15.63;78.75
5877;BME280;2964;42.144;24.730;2022-10-16T08:12:16;145616.97;;;16.29;75.28
5877;BME280;2964;42.144;24.730;2022-10-16T08:14:44;145632.09;;;16.35;75.07
5877;BME280;2964;42.144;24.730;2022-10-16T08:17:14;145599.28;;;16.22;75.59
5877;BME280;2964;42.144;24.730;2022-10-16T08:19:44;145574.03;;;16.12;76.03
5877;BME280;2964;42.144;24.730;2022-10-16T08:22:11;145490.81;;;15.78;77.74
5877;BME280;2964;42.144;24.730;2022-10-16T08:24:37;145628.28;;;16.34;76.56
5877;BME280;2964;42.144;24.730;2022-10-16T08:27:04;145917.41;;;17.51;72.08
5877;BME280;2964;42.144;24.730;2022-10-16T08:29:32;146129.69;;;18.38;69.15
5877;BME280;2964;42.144;24.730;2022-10-16T08:32:00;146347.16;;;19.26;68.19
5877;BME280;2964;42.144;24.730;2022-10-16T08:34:27;146555.88;;;20.11;64.03
5877;BME280;2964;42.144;24.730;2022-10-16T08:36:53;146392.66;;;19.44;63.09
5877;BME280;2964;42.144;24.730;2022-10-16T08:39:20;146736.84;;;20.84;60.96
5877;BME280;2964;42.144;24.730;2022-10-16T08:42:07;146920.53;;;21.58;57.72
5877;BME280;2964;42.144;24.730;2022-10-16T08:44:59;146943.31;;;21.68;55.23
5877;BME280;2964;42.144;24.730;2022-10-16T08:47:39;147064.94;;;22.17;55.29
5877;BME280;2964;42.144;24.730;2022-10-16T08:50:11;147208.16;;;22.75;53.59
5877;BME280;2964;42.144;24.730;2022-10-16T08:52:41;147612.81;;;24.39;50.69
5877;BME280;2964;42.144;24.730;2022-10-16T08:57:57;148531.59;;;28.10;37.36
5877;BME280;2964;42.144;24.730;2022-10-16T09:00:24;148727.56;;;28.89;34.35
5877;BME280;2964;42.144;24.730;2022-10-16T09:02:59;149022.97;;;30.08;31.66
5877;BME280;2964;42.144;24.730;2022-10-16T09:05:42;149428.28;;;31.71;28.83
5877;BME280;2964;42.144;24.730;2022-10-16T09:08:18;149586.41;;;32.35;27.36
5877;BME280;2964;42.144;24.730;2022-10-16T09:10:54;149810.97;;;33.25;26.39
5877;BME280;2964;42.144;24.730;2022-10-16T09:13:26;149913.13;;;33.67;25.50
5877;BME280;2964;42.144;24.730;2022-10-16T09:16:00;149591.53;;;32.37;26.52
5877;BME280;2964;42.144;24.730;2022-10-16T09:18:37;148137.38;;;26.51;34.67
5877;BME280;2964;42.144;24.730;2022-10-16T09:21:10;148609.19;;;28.41;32.62
5877;BME280;2964;42.144;24.730;2022-10-16T09:23:40;149429.53;;;31.72;27.46
5877;BME280;2964;42.144;24.730;2022-10-16T09:26:11;149216.66;;;30.86;26.93
5877;BME280;2964;42.144;24.730;2022-10-16T09:28:39;148965.69;;;29.85;28.28
5877;BME280;2964;42.144;24.730;2022-10-16T09:31:13;149435.94;;;31.74;26.65
5877;BME280;2964;42.144;24.730;2022-10-16T09:33:42;149419.38;;;31.68;27.16
5877;BME280;2964;42.144;24.730;2022-10-16T09:36:11;149494.56;;;31.98;25.81
5877;BME280;2964;42.144;24.730;2022-10-16T09:38:39;148886.72;;;29.53;28.92
5877;BME280;2964;42.144;24.730;2022-10-16T09:41:15;149145.28;;;30.57;27.32
5877;BME280;2964;42.144;24.730;2022-10-16T09:43:47;149293.13;;;31.17;27.42
5877;BME280;2964;42.144;24.730;2022-10-16T09:46:25;148605.38;;;28.40;28.92
5877;BME280;2964;42.144;24.730;2022-10-16T09:48:55;148518.88;;;28.05;30.88
5877;BME280;2964;42.144;24.730;2022-10-16T09:51:26;148095.47;;;26.34;33.62
5877;BME280;2964;42.144;24.730;2022-10-16T09:53:57;147408.53;;;23.56;37.18
5877;BME280;2964;42.144;24.730;2022-10-16T09:56:26;147021.84;;;22.00;41.92
5877;BME280;2964;42.144;24.730;2022-10-16T09:58:55;146750.81;;;20.90;41.28
5877;BME280;2964;42.144;24.730;2022-10-16T10:01:26;146928.16;;;21.62;42.80
5877;BME280;2964;42.144;24.730;2022-10-16T10:03:57;146857.16;;;21.33;43.63
5877;BME280;2964;42.144;24.730;2022-10-16T10:06:30;146695.09;;;20.67;43.01
5877;BME280;2964;42.144;24.730;2022-10-16T10:09:04;146720.44;;;20.77;42.09
5877;BME280;2964;42.144;24.730;2022-10-16T10:11:44;146629.25;;;20.40;41.54
5877;BME280;2964;42.144;24.730;2022-10-16T10:14:17;146547.03;;;20.07;42.96
5877;BME280;2964;42.144;24.730;2022-10-16T10:16:45;146339.53;;;19.23;44.34
5877;BME280;2964;42.144;24.730;2022-10-16T10:19:15;146385.06;;;19.41;43.75
5877;BME280;2964;42.144;24.730;2022-10-16T10:21:42;146261.16;;;18.91;43.68
5877;BME280;2964;42.144;24.730;2022-10-16T10:24:13;146229.53;;;18.78;44.06
5877;BME280;2964;42.144;24.730;2022-10-16T10:26:47;146249.78;;;18.86;43.49
5877;BME280;2964;42.144;24.730;2022-10-16T10:29:21;146189.06;;;18.62;44.44
5877;BME280;2964;42.144;24.730;2022-10-16T10:31:57;146221.91;;;18.75;45.00
5877;BME280;2964;42.144;24.730;2022-10-16T10:34:41;146185.28;;;18.60;45.85
5877;BME280;2964;42.144;24.730;2022-10-16T10:37:23;146215.63;;;18.73;45.84
5877;BME280;2964;42.144;24.730;2022-10-16T10:39:57;146160.03;;;18.50;49.50
5877;BME280;2964;42.144;24.730;2022-10-16T10:42:29;146204.22;;;18.68;46.69
5877;BME280;2964;42.144;24.730;2022-10-16T10:45:15;146088.00;;;18.21;47.02
5877;BME280;2964;42.144;24.730;2022-10-16T10:47:50;146162.53;;;18.51;46.89
5877;BME280;2964;42.144;24.730;2022-10-16T10:50:24;146178.97;;;18.58;46.62
5877;BME280;2964;42.144;24.730;2022-10-16T10:52:59;146177.69;;;18.57;46.23
5877;BME280;2964;42.144;24.730;2022-10-16T10:55:33;146118.28;;;18.33;46.80
5877;BME280;2964;42.144;24.730;2022-10-16T10:58:24;146033.66;;;17.99;46.74
5877;BME280;2964;42.144;24.730;2022-10-16T11:01:03;146012.19;;;17.90;46.69
5877;BME280;2964;42.144;24.730;2022-10-16T11:03:42;146009.63;;;17.89;45.61
5877;BME280;2964;42.144;24.730;2022-10-16T11:06:17;146089.25;;;18.21;45.76
5877;BME280;2964;42.144;24.730;2022-10-16T11:08:47;146042.53;;;18.02;46.76
5877;BME280;2964;42.144;24.730;2022-10-16T11:11:20;146008.38;;;17.88;46.10
5877;BME280;2964;42.144;24.730;2022-10-16T11:13:56;146018.47;;;17.92;45.78
5877;BME280;2964;42.144;24.730;2022-10-16T11:16:28;146085.44;;;18.20;45.36
5877;BME280;2964;42.144;24.730;2022-10-16T11:18:59;146132.19;;;18.39;45.11
5877;BME280;2964;42.144;24.730;2022-10-16T11:21:34;145970.47;;;17.73;46.35
5877;BME280;2964;42.144;24.730;2022-10-16T11:24:11;146008.38;;;17.88;46.67
5877;BME280;2964;42.144;24.730;2022-10-16T11:26:42;146029.88;;;17.97;47.57
5877;BME280;2964;42.144;24.730;2022-10-16T11:29:16;145980.56;;;17.77;44.96
5877;BME280;2964;42.144;24.730;2022-10-16T11:31:47;145959.06;;;17.68;45.42
5877;BME280;2964;42.144;24.730;2022-10-16T11:34:22;146036.16;;;18.00;45.58
5877;BME280;2964;42.144;24.730;2022-10-16T11:36:56;146058.91;;;18.09;45.86
5877;BME280;2964;42.144;24.730;2022-10-16T11:39:27;146079.16;;;18.17;45.55
5877;BME280;2964;42.144;24.730;2022-10-16T11:41:58;145983.09;;;17.78;45.16
5877;BME280;2964;42.144;24.730;2022-10-16T11:44:36;146098.09;;;18.25;44.97
5877;BME280;2964;42.144;24.730;2022-10-16T11:47:15;146144.84;;;18.44;45.46
5877;BME280;2964;42.144;24.730;2022-10-16T11:49:47;146119.59;;;18.33;45.52
5877;BME280;2964;42.144;24.730;2022-10-16T11:52:22;146134.72;;;18.40;44.23
5877;BME280;2964;42.144;24.730;2022-10-16T11:54:54;146142.34;;;18.43;44.35
5877;BME280;2964;42.144;24.730;2022-10-16T11:57:26;146144.84;;;18.44;43.68
5877;BME280;2964;42.144;24.730;2022-10-16T11:59:56;146118.28;;;18.33;43.18
5877;BME280;2964;42.144;24.730;2022-10-16T12:02:41;146125.88;;;18.36;43.61
5877;BME280;2964;42.144;24.730;2022-10-16T12:05:21;146165.06;;;18.52;43.64
5877;BME280;2964;42.144;24.730;2022-10-16T12:07:55;146178.97;;;18.58;42.86
5877;BME280;2964;42.144;24.730;2022-10-16T12:10:28;146186.53;;;18.61;42.89
5877;BME280;2964;42.144;24.730;2022-10-16T12:12:57;146181.47;;;18.59;42.47
5877;BME280;2964;42.144;24.730;2022-10-16T12:15:25;146098.09;;;18.25;42.34
5877;BME280;2964;42.144;24.730;2022-10-16T12:17:53;146144.84;;;18.44;42.97
5877;BME280;2964;42.144;24.730;2022-10-16T12:20:23;146141.03;;;18.42;42.98
5877;BME280;2964;42.144;24.730;2022-10-16T12:22:54;146144.84;;;18.44;43.46
5877;BME280;2964;42.144;24.730;2022-10-16T12:25:25;146152.44;;;18.47;43.05
5877;BME280;2964;42.144;24.730;2022-10-16T12:28:01;146096.84;;;18.24;43.48
5877;BME280;2964;42.144;24.730;2022-10-16T12:30:29;146156.22;;;18.48;42.87
5877;BME280;2964;42.144;24.730;2022-10-16T12:32:58;146273.81;;;18.96;45.08
5877;BME280;2964;42.144;24.730;2022-10-16T12:35:29;146256.13;;;18.89;43.75
5877;BME280;2964;42.144;24.730;2022-10-16T12:38:07;146156.22;;;18.48;43.75
5877;BME280;2964;42.144;24.730;2022-10-16T12:40:39;146170.13;;;18.54;44.65
5877;BME280;2964;42.144;24.730;2022-10-16T12:43:27;146195.38;;;18.64;43.83
5877;BME280;2964;42.144;24.730;2022-10-16T12:46:02;146215.63;;;18.73;43.26
5877;BME280;2964;42.144;24.730;2022-10-16T12:48:30;146202.97;;;18.67;43.37
5877;BME280;2964;42.144;24.730;2022-10-16T12:50:57;146286.44;;;19.01;42.75
5877;BME280;2964;42.144;24.730;2022-10-16T12:53:37;146258.63;;;18.90;43.70
5877;BME280;2964;42.144;24.730;2022-10-16T12:56:09;146225.72;;;18.77;44.44
5877;BME280;2964;42.144;24.730;2022-10-16T12:58:51;146172.63;;;18.55;43.26
5877;BME280;2964;42.144;24.730;2022-10-16T13:01:48;146214.38;;;18.72;42.89
5877;BME280;2964;42.144;24.730;2022-10-16T13:04:44;146162.53;;;18.51;43.83
5877;BME280;2964;42.144;24.730;2022-10-16T13:07:28;146199.19;;;18.66;44.18
5877;BME280;2964;42.144;24.730;2022-10-16T13:10:10;146210.56;;;18.70;43.67
5877;BME280;2964;42.144;24.730;2022-10-16T13:12:57;146182.78;;;18.59;44.26
5877;BME280;2964;42.144;24.730;2022-10-16T13:15:46;146218.13;;;18.74;43.46
5877;BME280;2964;42.144;24.730;2022-10-16T13:18:18;146206.78;;;18.69;43.50